Aviation Digital Data Service (ADDS)

Output produced by METARs form (0107 UTC 20 September 2020)
found at http://www.aviationweather.gov/metar/data/
 
Forecast for: RJFF (FUKUOKA/ITAZUKE , JP)
Text: TAF RJFF 192309Z 2000/2106 33013KT 9999 FEW030
Forecast period: 0000 to 1200 UTC 20 September 2020
Forecast type: FROM: standard forecast or significant change
Winds: from the NNW (330 degrees) at 15 MPH (13 knots; 6.7 m/s)
Visibility: 6 or more miles (10+ km)
Ceiling: at least 12,000 feet AGL
Clouds: few clouds at 3000 feet AGL
Weather: no significant weather forecast for this period
Text: BECMG 2012/2015 12003KT
Forecast period: 1200 to 2100 UTC 20 September 2020
Forecast type: BECOMING: Conditions expected to become as follows by 1500 UTC 20 September 2020
Winds: from the ESE (120 degrees) at 3 MPH (3 knots; 1.5 m/s)
Visibility: 6 or more miles (10+ km)
Ceiling: at least 12,000 feet AGL
Clouds: few clouds at 3000 feet AGL
Weather: no significant weather forecast for this period
Text: BECMG 2021/2100 36010KT
Forecast period: 2100 UTC 20 September 2020 to 0600 UTC 21 September 2020
Forecast type: BECOMING: Conditions expected to become as follows by 0000 UTC 21 September 2020
Winds: from the N (360 degrees) at 12 MPH (10 knots; 5.1 m/s)
Visibility: 6 or more miles (10+ km)
Ceiling: at least 12,000 feet AGL
Clouds: few clouds at 3000 feet AGL
Weather: no significant weather forecast for this period